Time;durP1;ratioP1;P1;durP2;ratioP2;P2;SDS_P1;SDS_P2;PMS_P1;PMS_P2;Temp;Humidity;BMP_temperature;BMP_pressure;BME280_temperature;BME280_humidity;BME280_pressure;Samples;Min_cycle;Max_cycle;Signal;HPM_P1;HPM_P2
2022/04/28 00:00:56;;;;;;;;;21.50;19.00;;;;;;;;5020542;28;11315;-74
2022/04/28 00:03:24;;;;;;;;;24.00;21.25;;;;;;;;5010568;28;10900;-73
2022/04/28 00:05:51;;;;;;;;;22.00;18.25;;;;;;;;5019585;28;10811;-74
2022/04/28 00:08:20;;;;;;;;;21.75;20.25;;;;;;;;5021319;28;10744;-74
2022/04/28 00:10:48;;;;;;;;;19.75;18.00;;;;;;;;5007577;28;10757;-73
2022/04/28 00:13:15;;;;;;;;;19.50;19.50;;;;;;;;5019372;28;10836;-72
2022/04/28 00:15:43;;;;;;;;;19.00;17.25;;;;;;;;5018651;28;10905;-73
2022/04/28 00:18:10;;;;;;;;;17.75;17.50;;;;;;;;5018791;28;10804;-73
2022/04/28 00:20:38;;;;;;;;;19.75;17.00;;;;;;;;5021956;28;10765;-72
2022/04/28 00:23:05;;;;;;;;;23.25;19.00;;;;;;;;5021944;28;10829;-73
2022/04/28 00:25:34;;;;;;;;;21.25;15.75;;;;;;;;5011720;28;10992;-73
2022/04/28 00:28:01;;;;;;;;;16.75;14.25;;;;;;;;5011463;28;10725;-74
2022/04/28 00:30:29;;;;;;;;;16.25;14.75;;;;;;;;5022752;28;10752;-74
2022/04/28 00:32:56;;;;;;;;;20.75;19.00;;;;;;;;5006412;28;10885;-73
2022/04/28 00:35:24;;;;;;;;;18.25;14.00;;;;;;;;5019354;28;11006;-72
2022/04/28 00:37:52;;;;;;;;;18.75;18.75;;;;;;;;5021412;28;12533;-73
2022/04/28 00:40:19;;;;;;;;;23.25;23.25;;;;;;;;5022239;28;10856;-73
2022/04/28 00:42:48;;;;;;;;;16.50;12.75;;;;;;;;5018028;28;11739;-73
2022/04/28 00:45:16;;;;;;;;;29.00;21.75;;;;;;;;5016381;28;10851;-73
2022/04/28 00:50:40;;;;;;;;;23.75;20.25;;;;;;;;5025106;28;11091;-74
2022/04/28 00:53:09;;;;;;;;;18.00;17.75;;;;;;;;5019752;28;11071;-73
2022/04/28 00:55:37;;;;;;;;;18.25;18.25;;;;;;;;5022984;28;11270;-73
2022/04/28 00:58:06;;;;;;;;;20.50;18.25;;;;;;;;5003603;28;11103;-72
2022/04/28 01:00:35;;;;;;;;;25.25;22.50;;;;;;;;5013165;28;11055;-75
2022/04/28 01:03:02;;;;;;;;;24.00;20.50;;;;;;;;5018613;28;11196;-74
2022/04/28 01:05:32;;;;;;;;;17.25;17.25;;;;;;;;5022607;28;11289;-72
2022/04/28 01:07:59;;;;;;;;;23.25;19.00;;;;;;;;5023185;28;11292;-73
2022/04/28 01:10:27;;;;;;;;;19.25;18.00;;;;;;;;5022850;28;11187;-73
2022/04/28 01:12:56;;;;;;;;;21.50;19.00;;;;;;;;5015036;28;11330;-74
2022/04/28 01:15:26;;;;;;;;;24.25;19.25;;;;;;;;5021684;28;11325;-73
2022/04/28 01:17:53;;;;;;;;;16.00;15.50;;;;;;;;5004911;28;11460;-73
2022/04/28 01:20:21;;;;;;;;;23.75;22.00;;;;;;;;5024361;28;11173;-73
2022/04/28 01:22:50;;;;;;;;;23.75;21.75;;;;;;;;5015964;28;11134;-73
2022/04/28 01:25:17;;;;;;;;;23.75;21.25;;;;;;;;5005571;28;11461;-73
2022/04/28 01:27:45;;;;;;;;;22.00;20.75;;;;;;;;5022464;28;11471;-74
2022/04/28 01:30:15;;;;;;;;;22.00;21.50;;;;;;;;5022356;28;12005;-74
2022/04/28 01:32:43;;;;;;;;;28.75;25.00;;;;;;;;5021559;28;11462;-72
2022/04/28 01:35:10;;;;;;;;;19.00;17.00;;;;;;;;5026097;28;11453;-74
2022/04/28 01:37:38;;;;;;;;;26.00;23.50;;;;;;;;5014675;28;11477;-74
2022/04/28 01:40:11;;;;;;;;;32.75;25.75;;;;;;;;5022835;28;11473;-74
2022/04/28 01:42:39;;;;;;;;;24.25;19.00;;;;;;;;5023774;28;11462;-73
2022/04/28 01:45:09;;;;;;;;;22.50;21.00;;;;;;;;5021449;28;11607;-72
2022/04/28 01:47:37;;;;;;;;;29.25;23.00;;;;;;;;5005383;28;12387;-74
2022/04/28 01:50:08;;;;;;;;;28.00;26.25;;;;;;;;5010710;28;11469;-73
2022/04/28 01:55:24;;;;;;;;;18.75;18.75;;;;;;;;5009843;28;11639;-74
2022/04/28 01:57:52;;;;;;;;;19.00;19.00;;;;;;;;5020460;28;11455;-73
2022/04/28 02:00:20;;;;;;;;;22.75;17.25;;;;;;;;5004069;28;11453;-73
2022/04/28 02:02:47;;;;;;;;;20.75;20.00;;;;;;;;5000397;28;11435;-73
2022/04/28 02:05:15;;;;;;;;;18.50;15.00;;;;;;;;5023873;28;11507;-73
2022/04/28 02:07:44;;;;;;;;;25.50;24.50;;;;;;;;5018684;28;11458;-72
2022/04/28 02:10:11;;;;;;;;;26.75;21.00;;;;;;;;5018016;28;11495;-74
2022/04/28 02:12:41;;;;;;;;;21.50;21.25;;;;;;;;5020093;28;11505;-73
2022/04/28 02:15:09;;;;;;;;;22.25;20.50;;;;;;;;5022745;28;11479;-73
2022/04/28 02:17:38;;;;;;;;;24.00;22.50;;;;;;;;5021105;28;11496;-75
2022/04/28 02:20:07;;;;;;;;;21.75;21.00;;;;;;;;5021835;28;11494;-74
2022/04/28 02:22:34;;;;;;;;;21.75;17.25;;;;;;;;5023499;28;11480;-72
2022/04/28 02:25:03;;;;;;;;;27.75;25.75;;;;;;;;5023794;28;11456;-72
2022/04/28 02:27:31;;;;;;;;;27.00;25.00;;;;;;;;5017312;28;12285;-75
2022/04/28 02:30:00;;;;;;;;;29.25;22.00;;;;;;;;5023848;28;11478;-73
2022/04/28 02:33:08;;;;;;;;;22.75;21.50;;;;;;;;5009047;28;11487;-74
2022/04/28 02:35:16;;;;;;;;;26.25;21.50;;;;;;;;5018366;28;11485;-74
2022/04/28 02:37:43;;;;;;;;;29.50;27.75;;;;;;;;5021703;28;11484;-75
2022/04/28 02:40:11;;;;;;;;;26.75;24.50;;;;;;;;5022508;28;11587;-73
2022/04/28 02:42:39;;;;;;;;;27.75;26.50;;;;;;;;5019559;28;11450;-73
2022/04/28 02:45:10;;;;;;;;;26.75;26.50;;;;;;;;5010576;28;12249;-72
2022/04/28 02:47:38;;;;;;;;;27.25;25.75;;;;;;;;5021204;28;11488;-75
2022/04/28 02:50:11;;;;;;;;;25.00;25.00;;;;;;;;4996695;28;11507;-71
2022/04/28 02:52:38;;;;;;;;;32.25;26.25;;;;;;;;5014737;28;11478;-72
2022/04/28 02:55:06;;;;;;;;;26.25;25.00;;;;;;;;5004330;28;12254;-73
2022/04/28 02:57:34;;;;;;;;;24.50;24.50;;;;;;;;5020734;28;11940;-72
2022/04/28 03:00:04;;;;;;;;;24.00;22.25;;;;;;;;5023142;28;11491;-72
2022/04/28 03:02:33;;;;;;;;;34.25;29.25;;;;;;;;5021566;28;11461;-74
2022/04/28 03:05:01;;;;;;;;;26.00;22.25;;;;;;;;5022247;28;11526;-77
2022/04/28 03:13:35;;;;;;;;;34.50;31.75;;;;;;;;5114722;27;13610;-75
2022/04/28 03:16:03;;;;;;;;;29.50;27.00;;;;;;;;5117028;28;12454;-73
2022/04/28 03:18:31;;;;;;;;;31.25;24.00;;;;;;;;5093188;28;11530;-71
2022/04/28 03:20:58;;;;;;;;;29.75;26.75;;;;;;;;5091651;28;11533;-73
2022/04/28 03:23:26;;;;;;;;;31.00;26.00;;;;;;;;5105424;28;11525;-75
2022/04/28 03:25:54;;;;;;;;;29.75;27.50;;;;;;;;5106482;28;11529;-72
2022/04/28 03:28:21;;;;;;;;;36.00;31.50;;;;;;;;5089595;28;11524;-76
2022/04/28 03:30:51;;;;;;;;;25.75;22.00;;;;;;;;5103317;27;11525;-72
2022/04/28 03:33:19;;;;;;;;;27.25;26.75;;;;;;;;5043524;28;11541;-71
2022/04/28 03:35:46;;;;;;;;;27.25;23.50;;;;;;;;5049064;28;11532;-74
2022/04/28 03:38:14;;;;;;;;;30.25;24.75;;;;;;;;5056066;28;11554;-71
2022/04/28 03:40:42;;;;;;;;;30.50;29.25;;;;;;;;5048256;28;11626;-74
2022/04/28 03:43:09;;;;;;;;;23.25;20.75;;;;;;;;5048801;28;11540;-70
2022/04/28 03:45:37;;;;;;;;;27.00;26.50;;;;;;;;5059751;28;12782;-70
2022/04/28 03:48:09;;;;;;;;;28.00;25.75;;;;;;;;5040365;28;11574;-71
2022/04/28 03:50:38;;;;;;;;;23.00;23.00;;;;;;;;5054863;28;11523;-74
2022/04/28 03:53:06;;;;;;;;;25.00;23.50;;;;;;;;5058212;28;12052;-73
2022/04/28 03:55:34;;;;;;;;;28.75;23.50;;;;;;;;5049273;28;12287;-72
2022/04/28 03:58:01;;;;;;;;;25.50;23.75;;;;;;;;5050405;28;11626;-72
2022/04/28 04:00:29;;;;;;;;;19.25;15.75;;;;;;;;5061897;28;11520;-75
2022/04/28 04:02:56;;;;;;;;;24.00;21.75;;;;;;;;5052105;28;11578;-73
2022/04/28 04:05:26;;;;;;;;;24.00;24.00;;;;;;;;5049786;28;11555;-72
2022/04/28 04:07:54;;;;;;;;;26.25;22.25;;;;;;;;5057429;28;11630;-72
2022/04/28 04:10:21;;;;;;;;;28.50;25.00;;;;;;;;5045778;28;11586;-73
2022/04/28 04:12:49;;;;;;;;;31.50;28.75;;;;;;;;5048738;28;11661;-72
2022/04/28 04:15:16;;;;;;;;;28.50;25.00;;;;;;;;5046048;28;11613;-73
2022/04/28 04:17:45;;;;;;;;;31.25;27.00;;;;;;;;5058066;28;11870;-72
2022/04/28 04:20:13;;;;;;;;;29.00;27.50;;;;;;;;5046219;28;11653;-75
2022/04/28 04:22:43;;;;;;;;;31.00;27.50;;;;;;;;5052638;28;12533;-72
2022/04/28 04:25:11;;;;;;;;;13.50;12.50;;;;;;;;5059124;28;11591;-74
2022/04/28 04:27:38;;;;;;;;;35.50;33.75;;;;;;;;5053910;28;11568;-72
2022/04/28 04:32:50;;;;;;;;;19.50;19.50;;;;;;;;5029932;28;11597;-73
2022/04/28 04:35:18;;;;;;;;;30.75;25.00;;;;;;;;5043854;28;11622;-71
2022/04/28 04:37:46;;;;;;;;;26.25;26.25;;;;;;;;5046583;28;11603;-76
2022/04/28 04:40:15;;;;;;;;;23.75;23.00;;;;;;;;5046118;28;11639;-73
2022/04/28 04:42:42;;;;;;;;;29.50;27.00;;;;;;;;5038877;28;11562;-72
2022/04/28 04:45:10;;;;;;;;;32.50;26.75;;;;;;;;5037206;28;11670;-72
2022/04/28 04:47:38;;;;;;;;;31.25;26.25;;;;;;;;5033197;28;12453;-71
2022/04/28 04:50:07;;;;;;;;;28.50;28.00;;;;;;;;5033078;28;11601;-73
2022/04/28 04:52:35;;;;;;;;;30.50;28.50;;;;;;;;5056085;28;11600;-72
2022/04/28 04:55:18;;;;;;;;;23.25;22.50;;;;;;;;5045825;28;11597;-75
2022/04/28 04:57:45;;;;;;;;;27.75;23.75;;;;;;;;5031647;28;11603;-77
2022/04/28 05:00:13;;;;;;;;;29.50;27.75;;;;;;;;5026001;28;13654;-73
2022/04/28 05:02:40;;;;;;;;;35.00;30.25;;;;;;;;5044654;28;11602;-78
2022/04/28 05:05:09;;;;;;;;;35.50;27.75;;;;;;;;5029153;28;11635;-84
2022/04/28 05:07:36;;;;;;;;;29.25;26.25;;;;;;;;5036717;28;11686;-80
2022/04/28 05:10:09;;;;;;;;;19.50;19.50;;;;;;;;5045485;28;11591;-81
2022/04/28 05:12:36;;;;;;;;;28.25;27.00;;;;;;;;5038223;28;11617;-82
2022/04/28 05:15:05;;;;;;;;;29.50;26.00;;;;;;;;5034838;28;11714;-82
2022/04/28 05:17:32;;;;;;;;;32.25;28.25;;;;;;;;5032342;28;11607;-81
2022/04/28 05:20:00;;;;;;;;;29.25;28.00;;;;;;;;5027774;28;11603;-80
2022/04/28 05:22:27;;;;;;;;;30.25;24.00;;;;;;;;5045830;28;11603;-78
2022/04/28 05:24:55;;;;;;;;;36.75;27.00;;;;;;;;5037801;28;11769;-78
2022/04/28 05:27:23;;;;;;;;;33.25;33.00;;;;;;;;5030344;28;11614;-78
2022/04/28 05:29:51;;;;;;;;;30.75;26.75;;;;;;;;5066709;28;11610;-83
2022/04/28 05:32:18;;;;;;;;;32.00;31.50;;;;;;;;5037616;28;11575;-80
2022/04/28 05:34:46;;;;;;;;;31.25;31.25;;;;;;;;5043061;28;11612;-78
2022/04/28 05:37:13;;;;;;;;;33.50;28.00;;;;;;;;5036790;28;12376;-79
2022/04/28 05:39:41;;;;;;;;;34.50;30.00;;;;;;;;5040384;28;11609;-80
2022/04/28 05:42:09;;;;;;;;;28.75;28.25;;;;;;;;5037009;28;11632;-79
2022/04/28 05:47:25;;;;;;;;;36.25;32.50;;;;;;;;5012692;28;11627;-78
2022/04/28 05:49:53;;;;;;;;;37.75;34.25;;;;;;;;5036434;28;11640;-78
2022/04/28 05:52:21;;;;;;;;;39.00;37.00;;;;;;;;5039870;28;11612;-78
2022/04/28 05:54:48;;;;;;;;;31.50;28.50;;;;;;;;5025058;28;11607;-78
2022/04/28 05:57:17;;;;;;;;;41.25;38.25;;;;;;;;5030974;28;11671;-79
2022/04/28 05:59:45;;;;;;;;;33.75;32.00;;;;;;;;5036611;28;11611;-80
2022/04/28 06:02:13;;;;;;;;;38.50;36.00;;;;;;;;5029467;28;11546;-81
2022/04/28 06:04:40;;;;;;;;;31.75;28.75;;;;;;;;5039937;28;12356;-77
2022/04/28 06:07:07;;;;;;;;;36.25;29.75;;;;;;;;5041908;28;11658;-77
2022/04/28 06:09:35;;;;;;;;;31.00;30.25;;;;;;;;5026580;28;11622;-83
2022/04/28 06:12:02;;;;;;;;;32.50;28.50;;;;;;;;5025334;28;11640;-80
2022/04/28 06:14:29;;;;;;;;;36.50;29.25;;;;;;;;5037541;28;12415;-80
2022/04/28 06:16:58;;;;;;;;;34.75;33.25;;;;;;;;5034867;28;12457;-78
2022/04/28 06:19:26;;;;;;;;;34.00;32.00;;;;;;;;5039697;28;11664;-82
2022/04/28 06:21:53;;;;;;;;;29.25;26.75;;;;;;;;5030057;28;11554;-83
2022/04/28 06:24:20;;;;;;;;;35.25;31.25;;;;;;;;5045218;28;11595;-80
2022/04/28 06:26:47;;;;;;;;;32.00;29.75;;;;;;;;5033718;28;11502;-76
2022/04/28 06:29:14;;;;;;;;;33.75;28.75;;;;;;;;5030730;28;11548;-82
2022/04/28 06:31:42;;;;;;;;;33.75;30.50;;;;;;;;5016268;28;11471;-80
2022/04/28 06:34:11;;;;;;;;;34.50;33.25;;;;;;;;5017724;28;11650;-76
2022/04/28 06:36:38;;;;;;;;;41.75;36.75;;;;;;;;5010539;28;11631;-81
2022/04/28 06:39:06;;;;;;;;;41.75;33.50;;;;;;;;5021303;28;11545;-79
2022/04/28 06:41:33;;;;;;;;;25.25;24.50;;;;;;;;5018259;28;11662;-80
2022/04/28 06:44:01;;;;;;;;;35.50;33.50;;;;;;;;5013876;28;11572;-79
2022/04/28 06:46:28;;;;;;;;;47.75;37.25;;;;;;;;5022485;28;11661;-77
2022/04/28 06:48:56;;;;;;;;;36.25;32.50;;;;;;;;5015255;28;11566;-80
2022/04/28 06:51:25;;;;;;;;;37.25;33.25;;;;;;;;5019122;28;11574;-78
2022/04/28 06:53:52;;;;;;;;;32.50;32.50;;;;;;;;5008202;28;12227;-80
2022/04/28 06:56:19;;;;;;;;;34.25;31.25;;;;;;;;5016279;28;11540;-75
2022/04/28 06:58:46;;;;;;;;;36.25;31.00;;;;;;;;5011959;28;11655;-78
2022/04/28 07:01:14;;;;;;;;;34.75;32.25;;;;;;;;5006610;28;12517;-77
2022/04/28 07:03:41;;;;;;;;;36.50;32.25;;;;;;;;5019261;28;11532;-75
2022/04/28 07:06:08;;;;;;;;;25.75;22.75;;;;;;;;5019094;28;11562;-78
2022/04/28 07:08:37;;;;;;;;;33.75;30.50;;;;;;;;5019321;28;11572;-77
2022/04/28 07:11:05;;;;;;;;;41.00;36.00;;;;;;;;5021819;28;11541;-76
2022/04/28 07:13:33;;;;;;;;;22.50;19.50;;;;;;;;5014623;28;11573;-77
2022/04/28 07:16:00;;;;;;;;;39.75;36.50;;;;;;;;5019054;28;11587;-76
2022/04/28 07:18:28;;;;;;;;;45.50;34.50;;;;;;;;5009208;28;11645;-79
2022/04/28 07:20:55;;;;;;;;;46.75;36.25;;;;;;;;5013672;28;11332;-77
2022/04/28 07:23:22;;;;;;;;;43.00;38.00;;;;;;;;5021232;28;12379;-77
2022/04/28 07:25:51;;;;;;;;;35.00;33.00;;;;;;;;5018388;28;11567;-78
2022/04/28 07:28:19;;;;;;;;;42.75;36.50;;;;;;;;5027259;28;11126;-78
2022/04/28 07:30:46;;;;;;;;;37.75;33.50;;;;;;;;5021837;28;11111;-77
2022/04/28 07:33:13;;;;;;;;;29.75;27.00;;;;;;;;5022214;28;11193;-76
2022/04/28 07:35:40;;;;;;;;;34.75;32.75;;;;;;;;5018996;28;11915;-77
2022/04/28 07:38:08;;;;;;;;;28.25;28.25;;;;;;;;5014314;28;10942;-77
2022/04/28 07:40:36;;;;;;;;;35.00;32.75;;;;;;;;5024419;28;11070;-77
2022/04/28 07:43:05;;;;;;;;;38.00;31.50;;;;;;;;5005437;28;10971;-76
2022/04/28 07:45:33;;;;;;;;;41.00;34.50;;;;;;;;5021438;28;10855;-73
2022/04/28 07:48:01;;;;;;;;;31.50;31.50;;;;;;;;5015751;28;11583;-75
2022/04/28 07:50:30;;;;;;;;;35.50;32.50;;;;;;;;5032600;28;11519;-78
2022/04/28 07:52:58;;;;;;;;;30.00;30.00;;;;;;;;5020606;28;10687;-83
2022/04/28 07:55:26;;;;;;;;;35.75;32.50;;;;;;;;5017151;28;11476;-77
2022/04/28 07:57:53;;;;;;;;;29.25;26.00;;;;;;;;5022951;28;10575;-78
2022/04/28 08:00:23;;;;;;;;;36.50;33.00;;;;;;;;5020179;28;10609;-77
2022/04/28 08:02:51;;;;;;;;;29.00;25.25;;;;;;;;5011931;28;11218;-78
2022/04/28 08:05:19;;;;;;;;;29.00;29.00;;;;;;;;5016655;28;10400;-77
2022/04/28 08:07:46;;;;;;;;;40.25;35.75;;;;;;;;5026372;28;10365;-76
2022/04/28 08:10:14;;;;;;;;;35.50;30.75;;;;;;;;5023638;28;10418;-77
2022/04/28 08:12:41;;;;;;;;;35.25;31.50;;;;;;;;5020219;28;10165;-77
2022/04/28 08:15:09;;;;;;;;;31.75;31.75;;;;;;;;5020287;28;10095;-77
2022/04/28 08:17:37;;;;;;;;;34.25;33.25;;;;;;;;5025365;28;10001;-78
2022/04/28 08:20:06;;;;;;;;;33.00;28.50;;;;;;;;5014303;28;9975;-78
2022/04/28 08:22:33;;;;;;;;;34.25;33.00;;;;;;;;5028228;28;10485;-78
2022/04/28 08:25:02;;;;;;;;;35.75;30.75;;;;;;;;5021595;28;9841;-78
2022/04/28 08:27:29;;;;;;;;;27.25;27.25;;;;;;;;5015162;28;9649;-77
2022/04/28 08:29:56;;;;;;;;;31.75;30.75;;;;;;;;5022316;28;9733;-78
2022/04/28 08:32:24;;;;;;;;;29.00;27.33;;;;;;;;5033008;28;9512;-77
2022/04/28 08:34:52;;;;;;;;;31.00;28.67;;;;;;;;5023914;28;9427;-78
2022/04/28 08:37:20;;;;;;;;;24.67;23.00;;;;;;;;5023168;28;9354;-77
2022/04/28 08:39:47;;;;;;;;;33.00;31.67;;;;;;;;5025562;28;9425;-79
2022/04/28 08:42:15;;;;;;;;;27.00;27.00;;;;;;;;5015497;28;9249;-77
2022/04/28 08:44:45;;;;;;;;;29.33;29.00;;;;;;;;5018583;28;9362;-78
2022/04/28 08:47:13;;;;;;;;;32.33;28.67;;;;;;;;5032804;28;9027;-78
2022/04/28 08:49:43;;;;;;;;;25.00;25.00;;;;;;;;5020451;28;9101;-80
2022/04/28 08:52:14;;;;;;;;;28.67;26.67;;;;;;;;5021302;28;8960;-78
2022/04/28 08:54:41;;;;;;;;;31.33;30.33;;;;;;;;5008142;28;8989;-80
2022/04/28 08:57:09;;;;;;;;;33.00;28.00;;;;;;;;5027898;28;9024;-78
2022/04/28 08:59:36;;;;;;;;;26.75;26.75;;;;;;;;5020995;28;9035;-79
2022/04/28 09:02:04;;;;;;;;;31.75;30.50;;;;;;;;5014241;28;8951;-79
2022/04/28 09:04:31;;;;;;;;;26.25;23.50;;;;;;;;5006099;28;8874;-78
2022/04/28 09:07:00;;;;;;;;;27.00;25.25;;;;;;;;5010912;28;8862;-79
2022/04/28 09:09:29;;;;;;;;;27.75;25.50;;;;;;;;5024743;28;9671;-79
2022/04/28 09:11:59;;;;;;;;;32.00;29.00;;;;;;;;5009551;28;9812;-79
2022/04/28 09:14:26;;;;;;;;;21.00;21.00;;;;;;;;5016361;28;8888;-80
2022/04/28 09:16:56;;;;;;;;;24.75;20.75;;;;;;;;5016867;28;8876;-78
2022/04/28 09:19:24;;;;;;;;;23.50;22.00;;;;;;;;5035285;28;8885;-78
2022/04/28 09:21:53;;;;;;;;;25.75;24.50;;;;;;;;5029514;28;8905;-79
2022/04/28 09:24:21;;;;;;;;;23.75;22.75;;;;;;;;5043545;28;8867;-79
2022/04/28 09:26:53;;;;;;;;;23.25;22.00;;;;;;;;5044596;28;8881;-78
2022/04/28 09:29:21;;;;;;;;;22.25;21.00;;;;;;;;5042384;28;8871;-79
2022/04/28 09:31:51;;;;;;;;;23.00;23.00;;;;;;;;5033280;28;9600;-78
2022/04/28 09:34:20;;;;;;;;;19.25;19.25;;;;;;;;5007955;28;8862;-86
2022/04/28 09:36:48;;;;;;;;;29.50;25.50;;;;;;;;5018475;28;8841;-82
2022/04/28 09:42:29;;;;;;;;;23.50;23.50;;;;;;;;5013913;28;8887;-81
2022/04/28 09:44:55;;;;;;;;;24.25;22.75;;;;;;;;5020378;28;8866;-82
2022/04/28 09:47:24;;;;;;;;;22.50;20.50;;;;;;;;5022189;28;8915;-80
2022/04/28 09:49:53;;;;;;;;;20.75;19.00;;;;;;;;5023135;28;8903;-77
2022/04/28 09:52:20;;;;;;;;;18.25;16.50;;;;;;;;5013998;28;8874;-85
2022/04/28 09:54:48;;;;;;;;;17.00;16.25;;;;;;;;5020746;28;8866;-80
2022/04/28 09:57:17;;;;;;;;;13.00;12.50;;;;;;;;5020992;28;8890;-79
2022/04/28 09:59:45;;;;;;;;;24.75;22.50;;;;;;;;5022894;28;8994;-81
2022/04/28 10:02:16;;;;;;;;;18.25;18.25;;;;;;;;5019182;28;9624;-80
2022/04/28 10:04:56;;;;;;;;;18.25;18.25;;;;;;;;5026632;28;8874;-81
2022/04/28 10:07:24;;;;;;;;;18.00;16.20;;;;;;;;5033806;28;9792;-80
2022/04/28 10:09:53;;;;;;;;;19.00;17.00;;;;;;;;5020632;28;8869;-81
2022/04/28 10:12:25;;;;;;;;;22.25;21.50;;;;;;;;5022106;28;8873;-80
2022/04/28 10:14:54;;;;;;;;;17.00;16.20;;;;;;;;5024102;28;8877;-80
2022/04/28 10:17:27;;;;;;;;;16.80;16.80;;;;;;;;5021857;28;8866;-79
2022/04/28 10:19:56;;;;;;;;;18.80;18.80;;;;;;;;5042946;28;8906;-80
2022/04/28 10:22:26;;;;;;;;;19.20;17.80;;;;;;;;5025127;28;8861;-80
2022/04/28 10:33:24;;;;;;;;;14.40;14.40;;;;;;;;5011496;28;8870;-80
2022/04/28 10:35:56;;;;;;;;;13.40;13.40;;;;;;;;5020685;28;8882;-80
2022/04/28 10:38:24;;;;;;;;;10.60;10.60;;;;;;;;5029788;28;8992;-80
2022/04/28 10:41:00;;;;;;;;;13.00;13.00;;;;;;;;5043175;28;8863;-80
2022/04/28 10:43:37;;;;;;;;;12.00;12.00;;;;;;;;5018392;28;8882;-79
2022/04/28 10:46:32;;;;;;;;;13.60;13.60;;;;;;;;5016509;28;9577;-80
2022/04/28 10:49:01;;;;;;;;;11.00;11.00;;;;;;;;5022000;28;8874;-80
2022/04/28 10:51:31;;;;;;;;;10.20;9.00;;;;;;;;5020768;28;8865;-79
2022/04/28 10:54:07;;;;;;;;;13.20;11.80;;;;;;;;5023483;28;8885;-80
2022/04/28 10:57:04;;;;;;;;;11.40;10.00;;;;;;;;5021835;28;8877;-79
2022/04/28 10:59:50;;;;;;;;;11.80;11.80;;;;;;;;5012423;28;8884;-80
2022/04/28 11:02:43;;;;;;;;;8.60;8.60;;;;;;;;5010611;28;8818;-81
2022/04/28 11:05:33;;;;;;;;;8.20;8.20;;;;;;;;5011137;28;8869;-80
2022/04/28 11:08:01;;;;;;;;;8.60;8.60;;;;;;;;5025105;28;8907;-80
2022/04/28 11:10:29;;;;;;;;;7.00;7.00;;;;;;;;5042776;28;8862;-79
2022/04/28 11:12:57;;;;;;;;;7.40;7.00;;;;;;;;5041825;28;8874;-82
2022/04/28 11:15:27;;;;;;;;;9.20;9.20;;;;;;;;5036413;28;9647;-78
2022/04/28 11:17:54;;;;;;;;;8.20;6.60;;;;;;;;5018692;28;8876;-80
2022/04/28 11:20:22;;;;;;;;;8.00;8.00;;;;;;;;5024632;28;8893;-80
2022/04/28 11:22:51;;;;;;;;;7.80;7.80;;;;;;;;5026236;28;8870;-81
2022/04/28 11:25:20;;;;;;;;;8.80;8.80;;;;;;;;5017059;28;8963;-83
2022/04/28 11:27:50;;;;;;;;;9.40;9.40;;;;;;;;5011017;28;8865;-81
2022/04/28 11:30:19;;;;;;;;;11.20;9.60;;;;;;;;5011294;28;8861;-79
2022/04/28 11:32:50;;;;;;;;;7.40;7.40;;;;;;;;5016029;28;8890;-79
2022/04/28 11:35:17;;;;;;;;;11.20;9.40;;;;;;;;5024319;28;8931;-77
2022/04/28 11:37:44;;;;;;;;;11.60;11.60;;;;;;;;5019064;28;9004;-80
2022/04/28 11:40:14;;;;;;;;;9.60;8.60;;;;;;;;5020653;28;8907;-83
2022/04/28 11:42:42;;;;;;;;;7.40;7.40;;;;;;;;5024988;28;8884;-80
2022/04/28 11:45:10;;;;;;;;;9.00;9.00;;;;;;;;5029856;28;8871;-81
2022/04/28 11:47:44;;;;;;;;;7.40;7.40;;;;;;;;5032494;28;8874;-77
2022/04/28 11:50:19;;;;;;;;;6.60;6.60;;;;;;;;5016474;28;9011;-79
2022/04/28 11:52:47;;;;;;;;;7.00;7.00;;;;;;;;5032103;28;8857;-78
2022/04/28 11:55:15;;;;;;;;;7.00;7.00;;;;;;;;5009235;28;9003;-78
2022/04/28 11:57:42;;;;;;;;;5.80;5.80;;;;;;;;5023917;28;8884;-79
2022/04/28 12:00:12;;;;;;;;;4.60;4.60;;;;;;;;5021184;28;9408;-79
2022/04/28 12:02:41;;;;;;;;;5.80;5.80;;;;;;;;5026403;28;8896;-79
2022/04/28 12:05:21;;;;;;;;;4.00;4.00;;;;;;;;5011121;28;8896;-80
2022/04/28 12:07:52;;;;;;;;;4.00;4.00;;;;;;;;5023338;28;8878;-82
2022/04/28 12:15:56;;;;;;;;;4.60;4.60;;;;;;;;5023975;28;8828;-84
2022/04/28 12:21:22;;;;;;;;;4.00;4.00;;;;;;;;5016966;28;8873;-84
2022/04/28 12:23:52;;;;;;;;;4.40;4.40;;;;;;;;5022009;28;8872;-87
2022/04/28 12:26:21;;;;;;;;;5.40;5.40;;;;;;;;5015148;28;8908;-84
2022/04/28 12:28:49;;;;;;;;;5.00;5.00;;;;;;;;5025763;28;8847;-85
2022/04/28 12:31:27;;;;;;;;;5.80;5.80;;;;;;;;5017687;28;8897;-84
2022/04/28 12:33:55;;;;;;;;;6.80;5.00;;;;;;;;5021607;28;8888;-83
2022/04/28 12:36:24;;;;;;;;;5.20;5.20;;;;;;;;5023196;28;8945;-86
2022/04/28 12:38:53;;;;;;;;;4.60;4.60;;;;;;;;5026024;28;8886;-82
2022/04/28 12:41:22;;;;;;;;;4.60;4.60;;;;;;;;5023165;28;8962;-83
2022/04/28 12:43:51;;;;;;;;;3.20;3.20;;;;;;;;5022973;28;8876;-79
2022/04/28 12:46:22;;;;;;;;;4.60;4.60;;;;;;;;5018736;28;8861;-83
2022/04/28 12:48:58;;;;;;;;;6.00;5.40;;;;;;;;5021783;28;8877;-82
2022/04/28 12:51:27;;;;;;;;;4.80;4.80;;;;;;;;5025256;28;8877;-79
2022/04/28 12:54:08;;;;;;;;;5.20;4.20;;;;;;;;5022653;28;8862;-80
2022/04/28 12:56:35;;;;;;;;;4.80;4.80;;;;;;;;5014303;28;8919;-80
2022/04/28 12:59:05;;;;;;;;;4.60;4.60;;;;;;;;5012461;28;8883;-82
2022/04/28 13:01:34;;;;;;;;;2.40;2.40;;;;;;;;5033362;28;8884;-81
2022/04/28 13:04:04;;;;;;;;;3.20;3.20;;;;;;;;5033076;28;8943;-81
2022/04/28 13:06:36;;;;;;;;;5.60;5.00;;;;;;;;5034388;28;8887;-82
2022/04/28 13:09:05;;;;;;;;;4.20;4.20;;;;;;;;5029296;28;8898;-81
2022/04/28 13:11:33;;;;;;;;;5.40;5.40;;;;;;;;5023062;28;8907;-77
2022/04/28 13:14:02;;;;;;;;;6.80;4.80;;;;;;;;5018109;28;8931;-81
2022/04/28 13:16:30;;;;;;;;;4.00;4.00;;;;;;;;5020960;28;8877;-79
2022/04/28 13:18:57;;;;;;;;;4.60;4.60;;;;;;;;5012493;28;8884;-81
2022/04/28 13:21:25;;;;;;;;;5.00;3.00;;;;;;;;5011845;28;8871;-77
2022/04/28 13:23:54;;;;;;;;;3.80;3.80;;;;;;;;5002901;28;8888;-81
2022/04/28 13:26:23;;;;;;;;;6.20;5.40;;;;;;;;5010114;28;8889;-80
2022/04/28 13:28:52;;;;;;;;;4.40;4.40;;;;;;;;5020419;28;8884;-82
2022/04/28 13:31:20;;;;;;;;;4.00;4.00;;;;;;;;5017901;28;9632;-76
2022/04/28 13:33:48;;;;;;;;;4.40;4.40;;;;;;;;5022642;28;10296;-80
2022/04/28 13:36:16;;;;;;;;;5.20;5.20;;;;;;;;5015635;28;9038;-81
2022/04/28 13:38:43;;;;;;;;;4.60;4.60;;;;;;;;5017977;28;8840;-82
2022/04/28 13:41:13;;;;;;;;;5.60;5.60;;;;;;;;5025624;28;8896;-82
2022/04/28 13:43:41;;;;;;;;;6.40;5.20;;;;;;;;5013293;28;9627;-85
2022/04/28 13:46:10;;;;;;;;;3.00;3.00;;;;;;;;5015098;28;8864;-81
2022/04/28 13:48:37;;;;;;;;;3.80;3.80;;;;;;;;5018828;28;8950;-83
2022/04/28 13:51:07;;;;;;;;;3.60;3.60;;;;;;;;5008201;28;8946;-81
2022/04/28 13:53:34;;;;;;;;;3.80;3.80;;;;;;;;5017342;28;9652;-78
2022/04/28 13:56:05;;;;;;;;;4.60;4.60;;;;;;;;5013812;28;8897;-83
2022/04/28 13:58:35;;;;;;;;;5.00;5.00;;;;;;;;5007174;28;8873;-80
2022/04/28 14:01:03;;;;;;;;;7.00;5.00;;;;;;;;5018705;28;8790;-82
2022/04/28 14:03:32;;;;;;;;;5.00;3.40;;;;;;;;5018218;28;8887;-78
2022/04/28 14:06:01;;;;;;;;;4.80;4.80;;;;;;;;5015102;28;8881;-79
2022/04/28 14:08:29;;;;;;;;;6.60;4.80;;;;;;;;5020347;28;8869;-82
2022/04/28 14:10:59;;;;;;;;;6.40;3.60;;;;;;;;5015195;28;9045;-87
2022/04/28 14:13:26;;;;;;;;;3.80;3.80;;;;;;;;5008970;28;9003;-86
2022/04/28 14:15:55;;;;;;;;;4.00;4.00;;;;;;;;5014436;28;8860;-81
2022/04/28 14:18:30;;;;;;;;;4.40;4.40;;;;;;;;5007512;28;8858;-80
2022/04/28 14:20:58;;;;;;;;;3.80;3.80;;;;;;;;5008672;28;8893;-83
2022/04/28 14:23:26;;;;;;;;;4.40;4.40;;;;;;;;5009692;28;8873;-83
2022/04/28 14:25:54;;;;;;;;;7.00;5.60;;;;;;;;5022260;28;8904;-81
2022/04/28 14:28:22;;;;;;;;;4.80;4.00;;;;;;;;5032196;28;8860;-80
2022/04/28 14:30:50;;;;;;;;;4.40;4.20;;;;;;;;5018887;28;8840;-81
2022/04/28 14:33:19;;;;;;;;;4.80;4.80;;;;;;;;5044778;28;8924;-82
2022/04/28 14:35:46;;;;;;;;;4.80;4.80;;;;;;;;5048862;28;8881;-82
2022/04/28 14:38:13;;;;;;;;;5.60;5.60;;;;;;;;5030631;28;8940;-81
2022/04/28 14:40:41;;;;;;;;;4.40;4.40;;;;;;;;5036559;28;8868;-82
2022/04/28 14:43:09;;;;;;;;;4.60;4.60;;;;;;;;5037322;28;9635;-80
2022/04/28 14:45:38;;;;;;;;;5.40;4.00;;;;;;;;5038367;28;8881;-82
2022/04/28 14:48:06;;;;;;;;;4.40;4.40;;;;;;;;5038407;28;8881;-83
2022/04/28 14:53:19;;;;;;;;;5.00;3.60;;;;;;;;5026865;28;8845;-83
2022/04/28 14:55:47;;;;;;;;;3.80;3.80;;;;;;;;5029950;28;8910;-81
2022/04/28 14:58:17;;;;;;;;;4.80;4.80;;;;;;;;5033873;28;9063;-84
2022/04/28 15:00:45;;;;;;;;;7.60;6.00;;;;;;;;5026734;28;8794;-84
2022/04/28 15:03:13;;;;;;;;;4.80;4.00;;;;;;;;5021844;28;8973;-82
2022/04/28 15:05:42;;;;;;;;;5.20;5.20;;;;;;;;5015614;28;8874;-88
2022/04/28 15:08:09;;;;;;;;;4.20;4.20;;;;;;;;5019326;28;8887;-87
2022/04/28 15:10:37;;;;;;;;;4.00;4.00;;;;;;;;5008445;28;9619;-81
2022/04/28 15:13:05;;;;;;;;;4.60;4.60;;;;;;;;5020390;28;8899;-85
2022/04/28 15:15:35;;;;;;;;;5.00;5.00;;;;;;;;5015858;28;8901;-88
2022/04/28 15:18:02;;;;;;;;;4.80;4.00;;;;;;;;5007047;28;8852;-83
2022/04/28 15:20:30;;;;;;;;;6.20;4.80;;;;;;;;5015849;28;8873;-84